createdAt,value
2018-12-21T12:51:24.336Z,12.10
2018-12-21T12:54:13.315Z,11.83
2018-12-21T12:57:02.394Z,13.53
2018-12-21T12:59:30.724Z,15.53
2018-12-21T13:01:58.581Z,12.90
2018-12-21T13:04:26.194Z,12.70
2018-12-21T13:06:53.715Z,14.03
2018-12-21T13:09:21.208Z,16.83
2018-12-21T13:11:48.720Z,17.03
2018-12-21T13:14:16.636Z,14.63
2018-12-21T13:16:44.254Z,12.40
2018-12-21T13:19:12.685Z,11.37
2018-12-21T13:21:40.176Z,11.60
2018-12-21T13:24:07.780Z,10.00
2018-12-21T13:26:35.380Z,9.27
2018-12-21T13:29:02.898Z,9.57
2018-12-21T13:31:30.390Z,10.43
2018-12-21T13:33:57.935Z,12.40
2018-12-21T13:36:25.459Z,11.70
2018-12-21T13:38:52.986Z,12.63
2018-12-21T13:41:20.481Z,12.57
2018-12-21T13:43:47.992Z,17.13
2018-12-21T13:46:15.513Z,20.67
2018-12-21T13:48:43.195Z,20.50
2018-12-21T13:51:11.912Z,15.70
2018-12-21T13:53:39.436Z,15.77
2018-12-21T13:56:07.927Z,16.97
2018-12-21T13:58:35.503Z,15.53
2018-12-21T14:01:03.006Z,15.50
2018-12-21T14:03:30.528Z,14.30
2018-12-21T14:05:58.129Z,15.83
2018-12-21T14:08:25.633Z,18.80
2018-12-21T14:10:53.125Z,17.60
2018-12-21T14:13:21.608Z,14.60
2018-12-21T14:15:49.114Z,12.40
2018-12-21T14:18:16.707Z,13.77
2018-12-21T14:20:44.208Z,12.10
2018-12-21T14:23:11.719Z,12.40
2018-12-21T14:25:39.226Z,13.80
2018-12-21T14:28:06.740Z,14.30
2018-12-21T14:30:34.255Z,13.40
2018-12-21T14:33:01.820Z,13.50
2018-12-21T14:35:29.329Z,12.90
2018-12-21T14:37:57.886Z,13.13
2018-12-21T14:40:25.556Z,12.50
2018-12-21T14:42:53.086Z,12.30
2018-12-21T14:45:20.664Z,12.07
2018-12-21T14:47:48.336Z,13.30
2018-12-21T14:50:17.131Z,13.37
2018-12-21T14:52:44.637Z,13.63
2018-12-21T14:55:13.421Z,13.67
2018-12-21T14:57:42.274Z,12.83
2018-12-21T15:00:11.991Z,13.43
2018-12-21T15:02:40.755Z,14.97
2018-12-21T15:05:09.678Z,13.97
2018-12-21T15:07:38.458Z,13.63
2018-12-21T15:10:09.001Z,13.87
2018-12-21T15:12:37.810Z,13.70
2018-12-21T15:15:06.853Z,13.80
2018-12-21T15:17:35.683Z,14.70
2018-12-21T15:20:07.308Z,14.90
2018-12-21T15:22:36.212Z,15.10
2018-12-21T15:25:05.396Z,15.17
2018-12-21T15:27:34.502Z,16.30
2018-12-21T15:30:04.569Z,15.00
2018-12-21T15:32:33.380Z,16.60
2018-12-21T15:35:02.366Z,16.37
2018-12-21T15:37:31.243Z,16.93
2018-12-21T15:40:00.056Z,17.17
2018-12-21T15:42:30.871Z,16.30
2018-12-21T15:44:59.801Z,17.30
2018-12-21T15:47:28.747Z,15.97
2018-12-21T15:49:57.645Z,17.33
2018-12-21T15:52:26.699Z,17.47
2018-12-21T15:54:55.610Z,17.60
2018-12-21T15:57:24.539Z,17.27
2018-12-21T15:59:53.511Z,17.57
2018-12-21T16:02:23.004Z,18.55
2018-12-21T16:04:51.932Z,21.33
2018-12-21T16:07:20.880Z,19.80
2018-12-21T16:09:49.863Z,19.97
2018-12-21T16:12:18.864Z,17.73
2018-12-21T16:14:47.956Z,18.47
2018-12-21T16:17:16.956Z,21.03
2018-12-21T16:19:45.933Z,20.90
2018-12-21T16:22:14.945Z,21.50
2018-12-21T16:24:43.922Z,17.77
2018-12-21T16:27:13.800Z,19.77
2018-12-21T16:29:42.773Z,20.63
2018-12-21T16:32:11.737Z,20.20
2018-12-21T16:34:40.688Z,17.00
2018-12-21T16:37:10.408Z,17.70
2018-12-21T16:39:39.361Z,18.50
2018-12-21T16:42:08.361Z,17.33
2018-12-21T16:44:37.357Z,18.17
2018-12-21T16:47:06.341Z,19.33
2018-12-21T16:49:35.300Z,18.67
2018-12-21T16:52:04.353Z,18.17
2018-12-21T16:54:33.345Z,18.27
2018-12-21T16:57:02.448Z,18.30
2018-12-21T16:59:31.598Z,19.60
2018-12-21T17:02:00.543Z,17.83
2018-12-21T17:04:29.541Z,16.60
2018-12-21T17:06:58.468Z,21.10
2018-12-21T17:09:27.432Z,19.90
2018-12-21T17:11:56.432Z,19.73
2018-12-21T17:14:25.376Z,20.30
2018-12-21T17:16:54.328Z,18.90
2018-12-21T17:19:23.630Z,19.23
2018-12-21T17:21:53.276Z,21.52
2018-12-21T17:24:22.396Z,19.40
2018-12-21T17:26:51.435Z,19.40
2018-12-21T17:29:20.405Z,19.87
2018-12-21T17:31:49.321Z,18.60
2018-12-21T17:34:18.250Z,17.43
2018-12-21T17:36:47.223Z,18.97
2018-12-21T17:39:16.219Z,20.03
2018-12-21T17:41:45.166Z,19.43
2018-12-21T17:44:14.383Z,18.77
2018-12-21T20:16:31.600Z,15.43
2018-12-21T20:18:59.230Z,15.67
2018-12-21T20:21:27.034Z,16.33
2018-12-21T20:23:54.648Z,16.27
2018-12-21T20:26:22.173Z,17.77
2018-12-21T20:28:50.596Z,16.87
2018-12-21T20:31:18.130Z,18.80
2018-12-21T20:33:45.660Z,16.63
2018-12-21T20:36:13.272Z,13.80
2018-12-21T20:38:40.771Z,10.87
2018-12-21T20:41:09.312Z,14.47
2018-12-21T20:43:37.814Z,14.60
2018-12-21T20:46:06.446Z,14.57
2018-12-21T20:48:33.989Z,15.40
2018-12-21T20:51:02.508Z,16.93
2018-12-21T20:53:30.054Z,15.83
2018-12-21T20:55:57.555Z,19.13
2018-12-21T20:58:27.276Z,18.67
2018-12-21T21:00:54.767Z,17.23
2018-12-21T21:03:22.280Z,20.27
2018-12-21T21:05:49.861Z,21.13
2018-12-21T21:08:17.419Z,15.20
2018-12-21T21:10:44.911Z,19.20
2018-12-21T21:13:19.220Z,16.90
2018-12-21T21:15:41.948Z,15.80
2018-12-21T21:18:09.463Z,16.53
2018-12-21T21:20:37.259Z,17.90
2018-12-21T21:23:04.786Z,22.27
2018-12-21T21:25:33.304Z,16.03
2018-12-21T21:28:00.828Z,16.93
2018-12-21T21:30:28.693Z,16.83
2018-12-21T21:32:56.226Z,14.90
2018-12-21T21:35:23.731Z,17.50
2018-12-21T21:37:51.248Z,19.40
2018-12-21T21:40:18.750Z,18.00
2018-12-21T21:42:47.095Z,17.37
2018-12-21T21:45:14.580Z,16.70
2018-12-21T21:47:42.099Z,17.80
2018-12-21T21:50:09.995Z,21.30
2018-12-21T21:52:37.521Z,22.10
2018-12-21T21:55:05.210Z,19.67
2018-12-21T21:57:39.235Z,21.97
2018-12-21T22:00:02.253Z,23.43
2018-12-21T22:02:29.884Z,23.33
2018-12-21T22:04:57.425Z,23.73
2018-12-21T22:07:24.964Z,26.30
2018-12-21T22:09:52.457Z,26.23
2018-12-21T22:12:21.049Z,21.00
2018-12-21T22:14:48.549Z,22.63
2018-12-21T22:17:16.111Z,21.80
2018-12-21T22:19:43.632Z,20.87
2018-12-21T22:22:11.113Z,19.07
2018-12-21T22:24:38.751Z,18.50
2018-12-21T22:27:06.318Z,17.37
2018-12-21T22:29:33.807Z,16.23
2018-12-21T22:32:01.348Z,16.63
2018-12-21T22:34:28.846Z,15.43
2018-12-21T22:36:56.425Z,18.93
2018-12-21T22:39:24.253Z,17.07
2018-12-21T22:41:51.767Z,17.03
2018-12-21T22:44:19.295Z,17.70
2018-12-21T22:46:46.796Z,15.10
2018-12-21T22:49:14.352Z,12.43
2018-12-21T22:51:41.849Z,11.23
2018-12-21T22:54:09.345Z,10.33
2018-12-21T22:56:36.896Z,10.60
2018-12-21T22:59:04.389Z,9.57
2018-12-21T23:01:31.936Z,9.90
2018-12-21T23:03:59.432Z,9.90
2018-12-21T23:06:27.019Z,10.00
2018-12-21T23:08:54.504Z,9.77
2018-12-21T23:11:21.993Z,10.13
2018-12-21T23:13:49.530Z,9.83
2018-12-21T23:16:17.016Z,10.00
2018-12-21T23:18:44.592Z,13.70
2018-12-21T23:21:12.153Z,13.03
2018-12-21T23:23:39.649Z,9.93
2018-12-21T23:26:07.303Z,9.40
2018-12-21T23:28:34.796Z,9.30
2018-12-21T23:31:02.338Z,8.33
2018-12-21T23:33:29.884Z,7.60
2018-12-21T23:35:57.367Z,7.40
2018-12-21T23:38:24.892Z,7.50
2018-12-21T23:40:52.416Z,7.90
2018-12-21T23:43:20.137Z,7.63
2018-12-21T23:45:47.763Z,7.67
2018-12-21T23:48:15.310Z,7.70
2018-12-21T23:50:42.824Z,7.67
2018-12-21T23:53:10.344Z,7.47
2018-12-21T23:55:37.858Z,6.23
2018-12-21T23:58:13.482Z,6.87
